Saturday, November 18, 2017, 12:11 PM GMT
Back to Local

CYMX, Montreal / Mirabel

Location: , , Canada Lat: 45.683
Local Time: 12:11 PM GMT (12:11 GMT) Lon: -74.033
Time Zone: GMT Elev: 269 ft

Show me the last for .
Show Decoded

2017-11-18 12:00 METAR CYMX 181200Z 07007KT 030V090 45SM FEW110 BKN140 BKN220 M05/M08 A2989 RMK
                 AC2AC3CI2 PRESFR SLP127 =
2017-11-18 11:00 METAR CYMX 181100Z 05004KT 25SM FEW059 SCT120 BKN160 M06/M09 A2991 RMK SC1AC3AC2
                 SC TR SLP135 =
2017-11-18 10:00 METAR CYMX 181000Z 05003KT 010V090 25SM SCT120 BKN170 OVC210 M06/M09 A2993 RMK
                 AC4AC2CI2 SLP141 =
2017-11-18 09:00 METAR CYMX 180900Z 05004KT 25SM SCT100 OVC210 M06/M08 A2996 RMK AC4CI4 PRESFR
                 SLP151 =
2017-11-18 08:00 METAR CYMX 180800Z 36003KT 25SM SCT120 OVC210 M07/M09 A2999 RMK AC3CI5 SLP162 =
2017-11-18 07:00 METAR CYMX 180700Z VRB02KT 25SM FEW150 OVC250 M07/M09 A2999 RMK AC2CI6 SLP161 =
2017-11-18 06:00 METAR CYMX 180600Z 03003KT 320V030 25SM FEW150 OVC210 M06/M09 A3000 RMK AC2CI6
                 SLP166 =
2017-11-18 05:00 METAR CYMX 180500Z 23002KT 25SM BKN210 M06/M09 A3002 RMK CI6 SLP173 =
2017-11-18 04:00 METAR CYMX 180400Z VRB02KT 25SM SCT250 M06/M10 A3003 RMK CI3 SLP176 =
2017-11-18 03:00 METAR CYMX 180300Z 23002KT 25SM SCT250 M06/M10 A3005 RMK CI3 SLP182 =
2017-11-18 02:00 METAR CYMX 180200Z 25004KT 210V350 25SM FEW250 M05/M10 A3007 RMK CI2 SLP190 =
2017-11-18 01:00 METAR CYMX 180100Z VRB02KT 25SM SKC M05/M10 A3008 RMK SLP192 =
2017-11-18 00:00 METAR CYMX 180000Z 24005KT 25SM SKC M04/M10 A3008 RMK SLP193 =
2017-11-17 23:00 METAR CYMX 172300Z 25006KT 210V290 25SM FEW250 M03/M10 A3009 RMK CI1 SLP198 =
2017-11-17 22:00 METAR CYMX 172200Z 27004KT 230V300 25SM FEW250 M03/M10 A3008 RMK CI2 SLP191 =
2017-11-17 21:00 METAR CYMX 172100Z 29005KT 240V330 45SM FEW250 M02/M11 A3007 RMK CI2 SLP190 =
2017-11-17 20:00 METAR CYMX 172000Z 29005KT 260V320 45SM FEW030 FEW240 M01/M10 A3006 RMK SC1CI1
                 SC TR CI TR SLP186 =
2017-11-17 19:00 METAR CYMX 171900Z 26008KT 240V300 45SM FEW030 FEW240 M01/M10 A3007 RMK SC1CI1
                 SLP188 =
2017-11-17 18:00 METAR CYMX 171800Z 27009G17KT 240V320 45SM FEW034 M01/M10 A3006 RMK SC2 SLP183 =
2017-11-17 17:00 METAR CYMX 171700Z 27008G18KT 230V300 45SM FEW027 M01/M09 A3005 RMK SC2 SLP182 =
2017-11-17 16:00 METAR CYMX 171600Z 31009G17KT 260V330 45SM SCT031 M02/M10 A3008 RMK SC3 SLP191 =
2017-11-17 15:00 METAR CYMX 171500Z 28006KT 250V310 45SM SCT027 M02/M08 A3008 RMK SC4 SLP192 =
2017-11-17 14:00 METAR CYMX 171400Z 29008G17KT 45SM BKN024 M03/M08 A3008 RMK SC7 SLP192 =
2017-11-17 13:00 METAR CYMX 171300Z 31008G19KT 240V330 45SM BKN024 BKN035 M03/M07 A3007 RMK
                 SC5SC2 SLP187 =

Support USWX by starting your Amazon purchase here.